Time;durP1;ratioP1;P1;durP2;ratioP2;P2;SDS_P1;SDS_P2;PMS_P1;PMS_P2;Temp;Humidity;BMP_temperature;BMP_pressure;BME280_temperature;BME280_humidity;BME280_pressure;Samples;Min_cycle;Max_cycle;Signal;HPM_P1;HPM_P2
2023/05/06 00:00:55;;;;;;;;;14.00;12.00;;;;;14.37;75.91;101598.38;4950835;28;9513;-67
2023/05/06 00:03:21;;;;;;;;;13.75;13.50;;;;;14.35;75.92;101606.72;4971548;28;9988;-67
2023/05/06 00:05:48;;;;;;;;;10.25;9.00;;;;;14.33;75.70;101604.19;4951052;28;9667;-66
2023/05/06 00:08:15;;;;;;;;;15.00;11.00;;;;;14.32;75.71;101607.94;4916313;29;9873;-67
2023/05/06 00:10:41;;;;;;;;;11.25;10.00;;;;;14.31;75.89;101608.16;4946588;28;9743;-67
2023/05/06 00:13:08;;;;;;;;;10.00;10.00;;;;;14.32;76.14;101604.41;4957473;28;9765;-66
2023/05/06 00:15:35;;;;;;;;;14.25;14.00;;;;;14.29;76.18;101604.81;4956011;28;9599;-70
2023/05/06 00:18:01;;;;;;;;;14.50;13.50;;;;;14.30;75.95;101601.06;4952328;28;10504;-67
2023/05/06 00:20:28;;;;;;;;;15.00;13.00;;;;;14.27;76.12;101602.31;4934995;28;9769;-68
2023/05/06 00:22:55;;;;;;;;;13.75;12.25;;;;;14.26;76.17;101600.66;4951999;28;9859;-67
2023/05/06 00:25:21;;;;;;;;;10.00;9.25;;;;;14.26;76.30;101597.94;4950190;28;9766;-68
2023/05/06 00:27:47;;;;;;;;;16.50;16.50;;;;;14.25;75.95;101596.25;4957683;28;9835;-68
2023/05/06 00:30:14;;;;;;;;;11.00;11.00;;;;;14.24;76.26;101591.88;4961957;28;9842;-67
2023/05/06 00:32:40;;;;;;;;;9.75;9.50;;;;;14.23;76.24;101589.38;4953815;28;9696;-68
2023/05/06 00:35:07;;;;;;;;;13.50;13.25;;;;;14.21;76.12;101580.59;4951848;29;9768;-67
2023/05/06 00:37:34;;;;;;;;;13.75;11.25;;;;;14.18;76.28;101581.84;4950579;29;9890;-68
2023/05/06 00:40:02;;;;;;;;;14.00;12.75;;;;;14.17;76.45;101580.16;4933611;29;9768;-67
2023/05/06 00:42:28;;;;;;;;;12.25;12.00;;;;;14.16;76.32;101581.19;4947474;28;9693;-67
2023/05/06 00:44:55;;;;;;;;;12.50;12.25;;;;;14.17;76.46;101576.63;4950438;28;9849;-67
2023/05/06 00:47:22;;;;;;;;;12.00;12.00;;;;;14.14;76.13;101577.00;4959473;28;9754;-69
2023/05/06 00:49:49;;;;;;;;;20.25;17.00;;;;;14.11;76.00;101578.25;4958858;28;9963;-67
2023/05/06 00:52:17;;;;;;;;;17.00;13.00;;;;;14.09;76.19;101572.19;4956597;28;10012;-67
2023/05/06 00:54:44;;;;;;;;;18.50;15.50;;;;;14.08;76.27;101575.94;4933364;29;9872;-67
2023/05/06 00:57:11;;;;;;;;;16.25;14.75;;;;;14.06;76.43;101567.22;4950575;29;10717;-66
2023/05/06 00:59:38;;;;;;;;;17.00;14.25;;;;;14.04;76.16;101561.97;4934534;29;9939;-67
2023/05/06 01:02:04;;;;;;;;;13.75;13.75;;;;;14.02;76.28;101561.34;4950988;28;9841;-67
2023/05/06 01:04:32;;;;;;;;;14.00;11.00;;;;;14.01;76.49;101562.38;4941881;29;9879;-68
2023/05/06 01:07:34;;;;;;;;;13.50;13.00;;;;;13.98;76.37;101565.50;4934675;28;9877;-67
2023/05/06 01:10:09;;;;;;;;;18.00;15.25;;;;;13.94;76.22;101563.38;4934526;29;10081;-68
2023/05/06 01:12:49;;;;;;;;;21.00;13.75;;;;;13.91;76.56;101571.91;4934596;29;9980;-66
2023/05/06 01:15:27;;;;;;;;;18.00;15.00;;;;;13.90;76.51;101560.25;4952649;28;9997;-66
2023/05/06 01:17:57;;;;;;;;;15.00;15.00;;;;;13.89;76.39;101569.38;4958222;28;10041;-68
2023/05/06 01:20:24;;;;;;;;;17.00;16.00;;;;;13.88;76.75;101561.47;4951091;28;9921;-66
2023/05/06 01:22:51;;;;;;;;;14.00;12.25;;;;;13.85;76.56;101563.53;4938060;28;10176;-67
2023/05/06 01:25:21;;;;;;;;;15.25;13.25;;;;;13.83;76.53;101567.47;4965347;28;10090;-66
2023/05/06 01:27:48;;;;;;;;;11.50;11.50;;;;;13.83;76.54;101559.34;4959723;28;9906;-69
2023/05/06 01:30:17;;;;;;;;;17.50;16.00;;;;;13.82;76.64;101571.22;4964743;28;10694;-68
2023/05/06 01:32:51;;;;;;;;;19.50;17.75;;;;;13.78;76.67;101565.34;4938936;28;9995;-68
2023/05/06 01:35:42;;;;;;;;;18.25;18.25;;;;;13.76;76.74;101567.41;4945531;28;9909;-67
2023/05/06 01:38:09;;;;;;;;;17.00;17.00;;;;;13.74;76.82;101564.09;4962558;28;10006;-69
2023/05/06 01:40:36;;;;;;;;;19.25;18.00;;;;;13.74;76.62;101557.84;4959149;28;10071;-68
2023/05/06 01:43:05;;;;;;;;;22.50;19.00;;;;;13.73;76.97;101557.00;4953679;28;10104;-67
2023/05/06 01:45:35;;;;;;;;;13.75;13.75;;;;;13.71;77.10;101564.47;4941742;28;10078;-68
2023/05/06 01:48:03;;;;;;;;;20.50;20.00;;;;;13.70;77.05;101565.50;4953704;28;10072;-67
2023/05/06 01:50:31;;;;;;;;;23.00;20.00;;;;;13.68;77.25;101562.16;4937351;28;10181;-68
2023/05/06 01:53:01;;;;;;;;;19.75;16.75;;;;;13.67;77.30;101568.59;4954788;28;10168;-67
2023/05/06 01:55:27;;;;;;;;;17.00;17.00;;;;;13.65;77.15;101562.53;4953017;28;10029;-67
2023/05/06 01:57:55;;;;;;;;;20.00;18.75;;;;;13.66;77.25;101572.34;4950216;29;10075;-68
2023/05/06 02:00:26;;;;;;;;;20.00;20.00;;;;;13.66;77.24;101576.94;4963993;28;10002;-68
2023/05/06 02:02:52;;;;;;;;;17.50;14.50;;;;;13.66;77.42;101579.63;4950249;28;10217;-67
2023/05/06 02:05:19;;;;;;;;;19.25;16.25;;;;;13.65;77.25;101581.47;4952961;28;9868;-67
2023/05/06 02:07:50;;;;;;;;;11.50;11.50;;;;;13.66;77.36;101577.75;4937544;28;10019;-69
2023/05/06 02:10:17;;;;;;;;;13.75;13.75;;;;;13.66;77.36;101571.50;4937470;28;10106;-67
2023/05/06 02:12:49;;;;;;;;;19.00;18.25;;;;;13.67;77.32;101581.28;4944050;28;10857;-66
2023/05/06 02:15:16;;;;;;;;;21.00;17.00;;;;;13.67;77.56;101586.72;4942181;28;10232;-68
2023/05/06 02:17:42;;;;;;;;;19.50;16.00;;;;;13.67;77.56;101586.72;4950408;28;10101;-68
2023/05/06 02:20:09;;;;;;;;;15.75;15.00;;;;;13.66;77.55;101585.88;4936835;28;10068;-67
2023/05/06 02:22:36;;;;;;;;;21.00;18.25;;;;;13.66;77.41;101590.47;4952870;28;10159;-68
2023/05/06 02:25:02;;;;;;;;;22.00;19.00;;;;;13.65;77.22;101594.16;4953245;28;10031;-70
2023/05/06 02:27:29;;;;;;;;;19.00;19.00;;;;;13.64;77.75;101596.03;4951926;28;10102;-67
2023/05/06 02:29:56;;;;;;;;;24.00;20.00;;;;;13.64;77.46;101592.50;4953046;28;10212;-67
2023/05/06 02:32:22;;;;;;;;;22.50;19.50;;;;;13.63;77.60;101596.25;4951201;28;11420;-67
2023/05/06 02:34:50;;;;;;;;;23.75;21.75;;;;;13.62;77.78;101589.19;4936261;28;10047;-68
2023/05/06 02:37:19;;;;;;;;;20.25;20.00;;;;;13.60;77.79;101586.66;4954094;28;10155;-67
2023/05/06 02:39:45;;;;;;;;;23.50;22.00;;;;;13.59;77.94;101584.97;4934748;28;10192;-67
2023/05/06 02:42:12;;;;;;;;;18.50;18.50;;;;;13.58;77.92;101589.56;4956731;28;10333;-68
2023/05/06 02:44:39;;;;;;;;;19.75;18.75;;;;;13.57;77.76;101585.19;4964459;28;10030;-67
2023/05/06 02:47:06;;;;;;;;;18.50;18.50;;;;;13.55;77.89;101583.69;4952630;28;10946;-67
2023/05/06 02:49:32;;;;;;;;;20.50;18.50;;;;;13.55;77.88;101583.69;4954796;28;10140;-66
2023/05/06 02:51:59;;;;;;;;;21.50;19.75;;;;;13.52;77.87;101581.38;4960575;28;10110;-66
2023/05/06 02:54:26;;;;;;;;;20.25;19.00;;;;;13.50;77.81;101583.47;4953306;28;10227;-69
2023/05/06 02:56:52;;;;;;;;;26.00;23.25;;;;;13.48;77.98;101582.81;4936510;28;10121;-67
2023/05/06 02:59:19;;;;;;;;;27.75;24.00;;;;;13.46;78.27;101585.72;4929097;28;10522;-68
2023/05/06 03:01:45;;;;;;;;;18.25;16.75;;;;;13.45;78.04;101584.03;4953218;28;10202;-66
2023/05/06 03:04:11;;;;;;;;;17.75;17.75;;;;;13.45;78.14;101578.63;4960404;28;10959;-67
2023/05/06 03:06:38;;;;;;;;;21.25;19.50;;;;;13.46;78.07;101577.59;4936371;28;10946;-67
2023/05/06 03:09:05;;;;;;;;;20.00;18.50;;;;;13.45;77.96;101575.06;4936136;28;10105;-67
2023/05/06 03:11:32;;;;;;;;;19.75;18.75;;;;;13.44;77.83;101576.09;4941925;28;10792;-67
2023/05/06 03:14:02;;;;;;;;;22.75;20.25;;;;;13.42;77.84;101575.47;4951684;28;9994;-68
2023/05/06 03:16:29;;;;;;;;;21.00;21.00;;;;;13.42;77.94;101578.19;4958706;28;10016;-67
2023/05/06 03:18:58;;;;;;;;;21.00;21.00;;;;;13.41;78.04;101571.09;4951500;28;10273;-68
2023/05/06 03:21:25;;;;;;;;;18.25;16.25;;;;;13.40;78.11;101569.41;4951578;28;10112;-67
2023/05/06 03:23:52;;;;;;;;;23.75;20.25;;;;;13.38;77.84;101571.50;4936035;28;9950;-69
2023/05/06 03:26:21;;;;;;;;;21.25;20.50;;;;;13.34;77.86;101574.59;4951385;28;10068;-67
2023/05/06 03:28:49;;;;;;;;;21.75;20.25;;;;;13.34;78.00;101571.03;4945565;28;10177;-67
2023/05/06 03:31:18;;;;;;;;;21.00;21.00;;;;;13.32;77.98;101571.22;4947847;28;11049;-69
2023/05/06 03:33:44;;;;;;;;;21.00;19.25;;;;;13.32;77.87;101564.97;4948827;28;10230;-67
2023/05/06 03:36:12;;;;;;;;;24.75;20.75;;;;;13.29;77.98;101560.81;4935296;28;10233;-68
2023/05/06 03:38:41;;;;;;;;;23.00;20.75;;;;;13.26;77.94;101563.91;4935206;28;10542;-67
2023/05/06 03:41:08;;;;;;;;;23.50;22.50;;;;;13.24;77.90;101562.41;4951476;28;10242;-70
2023/05/06 03:43:36;;;;;;;;;20.75;20.50;;;;;13.21;77.99;101562.78;4930684;28;10330;-69
2023/05/06 03:46:03;;;;;;;;;27.00;24.75;;;;;13.21;77.91;101568.19;4950692;28;10329;-67
2023/05/06 03:48:33;;;;;;;;;20.00;19.00;;;;;13.21;78.08;101566.31;4943995;29;10431;-67
2023/05/06 03:51:00;;;;;;;;;17.50;17.25;;;;;13.21;78.22;101574.44;4949308;28;10357;-68
2023/05/06 03:53:27;;;;;;;;;23.25;21.75;;;;;13.19;78.01;101575.66;4927634;29;10325;-67
2023/05/06 03:55:54;;;;;;;;;20.50;20.50;;;;;13.15;77.99;101577.91;4930382;28;10518;-67
2023/05/06 03:58:21;;;;;;;;;24.75;24.75;;;;;13.11;78.18;101574.75;4942341;28;10579;-69
2023/05/06 04:00:49;;;;;;;;;22.00;21.25;;;;;13.09;78.08;101573.28;4939759;28;11079;-68
2023/05/06 04:03:15;;;;;;;;;22.00;20.75;;;;;13.08;78.24;101571.59;4951171;28;10511;-68
2023/05/06 04:05:48;;;;;;;;;22.00;21.50;;;;;13.09;78.28;101571.41;4934827;28;10205;-67
2023/05/06 04:08:17;;;;;;;;;26.00;24.00;;;;;13.09;78.32;101567.88;4951389;28;10236;-67
2023/05/06 04:10:44;;;;;;;;;26.75;22.75;;;;;13.09;78.22;101566.00;4936860;28;10266;-68
2023/05/06 04:13:25;;;;;;;;;22.75;21.25;;;;;13.09;78.14;101567.88;4955078;28;10356;-67
2023/05/06 04:15:52;;;;;;;;;25.50;23.75;;;;;13.08;78.14;101567.03;4938055;28;10383;-67
2023/05/06 04:18:23;;;;;;;;;28.75;27.25;;;;;13.07;78.60;101576.16;4942739;28;10445;-68
2023/05/06 04:20:59;;;;;;;;;22.00;21.75;;;;;13.07;78.24;101572.63;4950797;28;10343;-67
2023/05/06 04:23:26;;;;;;;;;24.00;24.00;;;;;13.02;78.46;101575.91;4934937;28;10346;-67
2023/05/06 04:25:56;;;;;;;;;21.75;21.25;;;;;13.01;78.56;101585.06;4934236;28;10451;-67
2023/05/06 04:28:23;;;;;;;;;27.00;25.50;;;;;13.00;78.68;101586.06;4918380;28;10270;-69
2023/05/06 04:30:51;;;;;;;;;24.75;24.00;;;;;12.99;78.64;101594.38;4943449;28;10380;-67
2023/05/06 04:33:21;;;;;;;;;17.25;17.25;;;;;13.00;78.68;101596.03;4950975;28;10413;-67
2023/05/06 04:35:58;;;;;;;;;25.00;22.00;;;;;13.02;78.82;101591.28;4934591;28;10738;-66
2023/05/06 04:38:29;;;;;;;;;21.25;20.75;;;;;13.03;78.84;101601.06;4950815;29;10450;-68
2023/05/06 04:40:56;;;;;;;;;24.75;22.50;;;;;13.04;78.83;101598.16;4950651;29;11253;-67
2023/05/06 04:43:26;;;;;;;;;23.00;21.50;;;;;13.06;78.51;101597.97;4944863;28;10351;-67
2023/05/06 04:46:00;;;;;;;;;21.25;19.50;;;;;13.07;78.58;101603.19;4931614;29;10366;-67
2023/05/06 04:48:30;;;;;;;;;24.75;23.25;;;;;13.10;78.77;101612.78;4934947;28;11069;-66
2023/05/06 04:50:58;;;;;;;;;25.00;21.75;;;;;13.14;78.95;101605.13;4938056;28;10413;-67
2023/05/06 04:53:24;;;;;;;;;23.75;22.50;;;;;13.15;78.84;101604.94;4939140;28;10384;-67
2023/05/06 04:55:51;;;;;;;;;24.50;22.00;;;;;13.20;78.75;101612.47;4950465;28;10347;-67
2023/05/06 04:58:18;;;;;;;;;22.25;22.00;;;;;13.22;78.75;101611.25;4954774;28;10568;-66
2023/05/06 05:00:45;;;;;;;;;24.50;22.25;;;;;13.31;78.76;101606.56;4946270;28;10283;-67
2023/05/06 05:03:12;;;;;;;;;24.50;23.50;;;;;13.38;78.79;101617.47;4939454;29;10423;-67
2023/05/06 05:05:39;;;;;;;;;26.25;24.75;;;;;13.45;78.70;101616.50;4931942;28;10352;-68
2023/05/06 05:08:12;;;;;;;;;19.75;17.25;;;;;13.52;78.72;101622.78;4945093;28;10351;-66
2023/05/06 05:10:42;;;;;;;;;21.25;20.25;;;;;13.60;78.54;101625.34;4969960;28;10982;-67
2023/05/06 05:13:12;;;;;;;;;25.75;21.75;;;;;13.66;78.54;101626.47;4965798;28;10245;-67
2023/05/06 05:15:39;;;;;;;;;20.00;18.75;;;;;13.72;78.54;101622.13;4941175;28;10015;-67
2023/05/06 05:18:07;;;;;;;;;24.50;22.00;;;;;13.75;78.30;101624.44;4954151;28;10154;-67
2023/05/06 05:20:35;;;;;;;;;25.00;22.50;;;;;13.74;77.99;101633.59;4954235;28;10061;-67
2023/05/06 05:23:03;;;;;;;;;20.50;20.00;;;;;13.70;78.04;101627.75;4953792;28;10097;-67
2023/05/06 05:25:31;;;;;;;;;23.00;22.50;;;;;13.69;78.13;101627.91;4936351;28;10067;-67
2023/05/06 05:27:57;;;;;;;;;21.00;18.75;;;;;13.67;78.60;101630.84;4937231;28;10342;-67
2023/05/06 05:30:24;;;;;;;;;21.00;17.25;;;;;13.66;78.70;101626.47;4950219;28;10114;-67
2023/05/06 05:32:52;;;;;;;;;22.25;21.00;;;;;13.65;78.61;101618.53;4934476;29;10208;-66
2023/05/06 05:35:19;;;;;;;;;19.75;18.75;;;;;13.66;78.73;101631.88;4945999;28;10175;-66
2023/05/06 05:37:46;;;;;;;;;22.75;19.50;;;;;13.67;78.93;101627.28;4937916;28;10285;-67
2023/05/06 05:40:14;;;;;;;;;29.00;26.75;;;;;13.66;78.78;101629.16;4933159;28;10076;-67
2023/05/06 05:42:42;;;;;;;;;26.50;24.25;;;;;13.64;79.02;101620.38;4961040;28;10256;-68
2023/05/06 05:45:17;;;;;;;;;27.75;26.25;;;;;13.64;79.28;101627.69;4937545;28;10339;-69
2023/05/06 05:47:43;;;;;;;;;21.00;19.75;;;;;13.64;79.28;101623.09;4947649;28;10350;-68
2023/05/06 05:50:11;;;;;;;;;23.00;21.25;;;;;13.65;79.81;101624.75;4947073;28;10110;-67
2023/05/06 05:52:38;;;;;;;;;26.00;23.75;;;;;13.65;79.13;101622.06;4950185;28;10253;-68
2023/05/06 05:55:06;;;;;;;;;21.25;19.75;;;;;13.70;79.35;101626.91;4933063;28;10349;-67
2023/05/06 05:57:33;;;;;;;;;19.00;17.75;;;;;13.72;79.53;101624.81;4918787;28;10185;-68
2023/05/06 06:00:00;;;;;;;;;23.25;17.25;;;;;13.74;79.47;101620.91;4938762;28;10088;-67
2023/05/06 06:02:30;;;;;;;;;24.25;19.75;;;;;13.79;79.41;101625.72;4956240;28;10090;-67
2023/05/06 06:04:56;;;;;;;;;20.75;18.75;;;;;13.82;79.32;101628.03;4964873;28;9865;-68
2023/05/06 06:07:23;;;;;;;;;22.75;22.75;;;;;13.87;79.43;101636.41;4937460;28;10119;-68
2023/05/06 06:09:49;;;;;;;;;26.00;21.75;;;;;13.89;78.89;101638.91;4937186;28;10016;-68
2023/05/06 06:12:16;;;;;;;;;29.00;24.50;;;;;13.91;79.14;101636.84;4950560;28;10025;-67
2023/05/06 06:14:47;;;;;;;;;20.50;20.50;;;;;13.92;79.01;101633.94;4927867;28;10256;-68
2023/05/06 06:17:16;;;;;;;;;26.25;25.50;;;;;13.95;79.18;101638.97;4963970;28;10639;-69
2023/05/06 06:19:44;;;;;;;;;26.25;20.25;;;;;13.98;78.82;101632.34;4950375;28;9931;-67
2023/05/06 06:22:12;;;;;;;;;28.75;26.75;;;;;14.00;79.05;101636.50;4953016;28;10175;-68
2023/05/06 06:24:38;;;;;;;;;27.25;21.00;;;;;14.02;79.06;101634.44;4932224;28;10046;-68
2023/05/06 06:27:05;;;;;;;;;22.50;22.00;;;;;14.09;78.78;101643.41;4936349;28;10127;-69
2023/05/06 06:29:32;;;;;;;;;31.50;25.75;;;;;14.25;79.35;101636.88;4953368;28;10189;-68
2023/05/06 06:31:58;;;;;;;;;26.25;24.25;;;;;14.43;79.07;101640.94;4937881;28;10208;-68
2023/05/06 06:34:25;;;;;;;;;24.00;20.50;;;;;14.59;78.52;101635.22;4932993;28;10081;-67
2023/05/06 06:36:51;;;;;;;;;33.00;29.75;;;;;14.68;77.74;101636.72;4947930;28;10094;-69
2023/05/06 06:39:17;;;;;;;;;25.00;22.25;;;;;14.79;77.05;101635.31;4969539;28;10187;-68
2023/05/06 06:41:44;;;;;;;;;27.75;24.75;;;;;14.86;76.75;101635.31;4956005;28;10033;-67
2023/05/06 06:44:10;;;;;;;;;25.75;23.75;;;;;14.91;76.54;101635.53;4964353;28;10755;-68
2023/05/06 06:46:37;;;;;;;;;24.75;22.75;;;;;14.98;76.41;101639.09;4944205;29;9863;-68
2023/05/06 06:49:04;;;;;;;;;34.25;30.75;;;;;15.06;75.93;101638.94;4935284;28;9919;-69
2023/05/06 06:51:31;;;;;;;;;29.25;28.75;;;;;15.11;75.64;101639.16;4953993;28;10318;-67
2023/05/06 06:53:57;;;;;;;;;27.25;23.00;;;;;15.23;75.81;101650.22;4949006;28;10127;-67
2023/05/06 06:56:24;;;;;;;;;29.50;25.00;;;;;15.33;75.14;101650.69;4941983;28;9921;-69
2023/05/06 06:58:50;;;;;;;;;22.75;22.00;;;;;15.40;75.26;101648.81;4956818;28;10132;-68
2023/05/06 07:01:18;;;;;;;;;21.75;21.00;;;;;15.45;74.61;101648.19;4960363;28;9805;-68
2023/05/06 07:03:45;;;;;;;;;18.25;18.00;;;;;15.50;75.09;101656.53;4955362;28;9766;-68
2023/05/06 07:06:12;;;;;;;;;33.75;27.50;;;;;15.50;74.96;101646.53;4962496;28;9837;-69
2023/05/06 07:08:38;;;;;;;;;24.50;24.50;;;;;15.51;75.02;101648.19;4953588;28;9999;-68
2023/05/06 07:11:05;;;;;;;;;24.25;24.00;;;;;15.49;74.84;101650.28;4953204;28;9981;-67
2023/05/06 07:13:31;;;;;;;;;26.75;25.00;;;;;15.47;74.66;101654.22;4952505;28;9758;-67
2023/05/06 07:15:57;;;;;;;;;30.00;27.00;;;;;15.43;74.63;101652.97;4944474;28;9924;-68
2023/05/06 07:18:24;;;;;;;;;22.00;22.00;;;;;15.53;75.30;101656.13;4949842;28;10062;-67
2023/05/06 07:20:50;;;;;;;;;29.50;27.25;;;;;15.66;75.19;101649.91;4947974;28;9794;-68
2023/05/06 07:23:17;;;;;;;;;24.00;22.50;;;;;15.72;74.47;101658.06;4952886;28;9783;-67
2023/05/06 07:25:43;;;;;;;;;25.50;24.75;;;;;15.75;74.38;101663.06;4952356;28;9908;-68
2023/05/06 07:28:10;;;;;;;;;30.25;28.00;;;;;15.72;73.94;101658.06;4933793;29;10615;-69
2023/05/06 07:30:37;;;;;;;;;27.75;24.75;;;;;15.74;74.34;101661.41;4946908;28;10004;-68
2023/05/06 07:33:04;;;;;;;;;20.25;17.25;;;;;15.86;73.80;101655.34;4956749;28;10060;-70
2023/05/06 07:35:30;;;;;;;;;24.75;23.75;;;;;15.98;73.85;101661.81;4960222;28;9587;-69
2023/05/06 07:37:57;;;;;;;;;21.75;21.25;;;;;16.12;73.33;101666.16;4963478;28;9854;-68
2023/05/06 07:40:23;;;;;;;;;23.50;20.00;;;;;16.22;73.00;101663.03;4962528;28;9781;-69
2023/05/06 07:42:50;;;;;;;;;28.75;25.00;;;;;16.29;72.88;101667.41;4972034;28;9600;-69
2023/05/06 07:45:18;;;;;;;;;27.75;23.75;;;;;16.40;72.64;101665.91;4953140;28;9901;-69
2023/05/06 07:47:44;;;;;;;;;25.25;22.50;;;;;16.44;71.96;101669.03;4958115;28;9604;-70
2023/05/06 07:50:11;;;;;;;;;23.75;23.00;;;;;16.42;71.79;101671.16;4963849;28;9610;-69
2023/05/06 07:52:38;;;;;;;;;22.50;21.50;;;;;16.44;71.59;101666.34;4960315;28;9523;-69
2023/05/06 07:55:05;;;;;;;;;21.00;17.25;;;;;16.48;71.54;101668.41;4958420;28;9549;-69
2023/05/06 07:57:31;;;;;;;;;17.00;15.00;;;;;16.51;71.37;101678.03;4935520;28;9389;-69
2023/05/06 07:59:58;;;;;;;;;24.00;23.50;;;;;16.59;71.40;101674.25;4939371;28;10282;-70
2023/05/06 08:02:25;;;;;;;;;20.33;19.00;;;;;16.66;71.45;101672.34;4935058;29;10165;-69
2023/05/06 08:04:52;;;;;;;;;21.75;20.50;;;;;16.71;71.04;101678.81;4939780;28;9303;-70
2023/05/06 08:07:19;;;;;;;;;22.00;20.33;;;;;16.74;70.31;101677.59;4935946;28;10073;-70
2023/05/06 08:09:45;;;;;;;;;25.00;21.50;;;;;16.75;70.09;101684.69;4960075;28;9400;-71
2023/05/06 08:12:12;;;;;;;;;14.67;13.00;;;;;16.77;69.03;101686.16;4951690;28;9477;-69
2023/05/06 08:14:38;;;;;;;;;12.33;11.00;;;;;16.83;68.95;101681.72;4931961;28;9160;-71
2023/05/06 08:17:05;;;;;;;;;18.67;15.33;;;;;16.86;68.23;101685.91;4943631;28;9167;-71
2023/05/06 08:19:31;;;;;;;;;20.00;17.00;;;;;16.90;68.41;101681.72;4950118;28;9396;-70
2023/05/06 08:21:58;;;;;;;;;12.00;11.33;;;;;16.90;67.06;101681.72;4952410;28;9384;-70
2023/05/06 08:24:24;;;;;;;;;18.33;14.00;;;;;16.90;66.73;101685.25;4934462;28;9232;-70
2023/05/06 08:26:51;;;;;;;;;12.33;12.33;;;;;16.97;67.27;101685.22;4951929;28;9361;-70
2023/05/06 08:29:17;;;;;;;;;13.00;12.33;;;;;17.00;67.43;101680.19;4952631;28;9279;-70
2023/05/06 08:31:45;;;;;;;;;12.67;12.00;;;;;17.11;67.63;101684.09;4946729;28;9833;-69
2023/05/06 08:34:12;;;;;;;;;16.33;12.67;;;;;17.21;67.46;101673.56;4955685;28;9252;-71
2023/05/06 08:36:38;;;;;;;;;15.00;14.67;;;;;17.28;67.34;101685.25;4951963;28;9064;-70
2023/05/06 08:39:05;;;;;;;;;17.33;15.33;;;;;17.34;66.50;101677.28;4951505;28;9286;-70
2023/05/06 08:41:33;;;;;;;;;18.00;18.00;;;;;17.39;66.22;101672.03;4951875;29;9150;-70
2023/05/06 08:44:02;;;;;;;;;19.33;19.33;;;;;17.42;66.53;101675.16;4950912;28;9244;-68
2023/05/06 08:46:29;;;;;;;;;13.33;13.33;;;;;17.48;66.76;101665.25;4943436;28;9385;-70
2023/05/06 08:48:57;;;;;;;;;24.00;21.67;;;;;17.54;65.87;101667.09;4959393;28;9557;-70
2023/05/06 08:51:30;;;;;;;;;15.67;13.67;;;;;17.50;65.93;101671.31;4951581;28;9320;-70
2023/05/06 08:54:01;;;;;;;;;13.67;12.00;;;;;17.55;65.70;101671.50;4951820;28;9187;-69
2023/05/06 08:56:31;;;;;;;;;11.00;11.00;;;;;17.53;64.14;101676.31;4957652;28;9148;-70
2023/05/06 08:58:58;;;;;;;;;7.00;6.00;;;;;17.60;65.03;101677.09;4956784;28;9218;-71
2023/05/06 09:01:26;;;;;;;;;11.00;10.00;;;;;17.71;64.53;101681.03;4940404;28;8927;-70
2023/05/06 09:03:55;;;;;;;;;11.67;9.00;;;;;17.81;64.66;101678.66;4957341;28;9961;-69
2023/05/06 09:06:23;;;;;;;;;10.75;10.75;;;;;17.85;63.58;101673.59;4934115;29;9086;-70
2023/05/06 09:08:49;;;;;;;;;13.00;11.00;;;;;17.87;63.64;101672.34;4942928;28;8825;-70
2023/05/06 09:11:23;;;;;;;;;17.33;15.67;;;;;17.88;64.11;101675.88;4957684;28;8921;-69
2023/05/06 09:14:05;;;;;;;;;14.00;11.00;;;;;17.93;64.29;101671.44;4950928;29;9646;-69
2023/05/06 09:16:32;;;;;;;;;12.33;11.33;;;;;18.03;64.06;101668.22;4934095;29;9002;-69
2023/05/06 09:18:58;;;;;;;;;14.25;12.50;;;;;18.12;63.67;101675.03;4951979;29;8899;-70
2023/05/06 09:21:35;;;;;;;;;11.25;11.25;;;;;18.08;62.81;101668.38;4951274;28;8866;-71
2023/05/06 09:24:03;;;;;;;;;11.00;7.00;;;;;18.14;62.68;101667.47;4944891;28;8821;-66
2023/05/06 09:26:32;;;;;;;;;12.75;10.00;;;;;18.18;62.04;101665.94;4958732;28;8842;-71
2023/05/06 09:28:59;;;;;;;;;8.75;7.75;;;;;18.22;62.15;101666.34;4934293;28;8831;-67
2023/05/06 09:31:26;;;;;;;;;8.00;8.00;;;;;18.26;61.74;101665.66;4924595;29;8830;-70
2023/05/06 09:33:56;;;;;;;;;6.75;6.25;;;;;18.32;61.05;101661.22;4950662;28;8848;-68
2023/05/06 09:36:24;;;;;;;;;5.25;5.25;;;;;18.38;59.83;101664.91;4935573;28;8827;-68
2023/05/06 09:38:52;;;;;;;;;6.00;6.00;;;;;18.43;60.43;101660.47;4954657;28;8867;-68
2023/05/06 09:41:20;;;;;;;;;12.00;11.00;;;;;18.45;60.52;101654.78;4953785;28;8867;-71
2023/05/06 09:43:48;;;;;;;;;12.75;11.50;;;;;18.49;60.59;101656.00;4956983;28;8853;-68
2023/05/06 09:46:18;;;;;;;;;9.75;9.75;;;;;18.50;59.86;101652.19;4954459;28;8934;-69
2023/05/06 09:48:45;;;;;;;;;6.25;6.25;;;;;18.62;59.58;101646.81;4952779;28;8886;-70
2023/05/06 09:51:12;;;;;;;;;7.00;7.00;;;;;18.70;59.57;101646.56;4957121;28;8902;-69
2023/05/06 09:53:38;;;;;;;;;7.25;7.00;;;;;18.80;58.52;101641.41;4956283;28;8847;-71
2023/05/06 09:56:06;;;;;;;;;7.00;7.00;;;;;18.89;58.38;101647.38;4956697;28;8845;-70
2023/05/06 09:58:34;;;;;;;;;8.25;6.50;;;;;18.96;57.78;101642.66;4956924;28;8843;-68
2023/05/06 10:01:06;;;;;;;;;5.00;5.00;;;;;19.01;57.78;101642.81;4955551;28;8833;-68
2023/05/06 10:03:34;;;;;;;;;8.00;7.75;;;;;18.99;57.90;101651.19;4942354;28;9584;-70
2023/05/06 10:06:03;;;;;;;;;9.50;6.75;;;;;18.99;57.27;101643.00;4961128;28;8961;-69
2023/05/06 10:08:32;;;;;;;;;3.75;3.50;;;;;19.07;57.52;101649.22;4948035;28;8934;-68
2023/05/06 10:11:00;;;;;;;;;10.25;10.25;;;;;19.07;57.15;101646.50;4938637;28;8827;-68
2023/05/06 10:13:27;;;;;;;;;7.50;6.75;;;;;19.10;57.21;101635.13;4939123;28;8930;-68
2023/05/06 10:15:54;;;;;;;;;10.75;6.50;;;;;19.15;57.94;101641.53;4955075;28;8850;-70
2023/05/06 10:18:25;;;;;;;;;6.25;6.00;;;;;19.22;58.04;101642.28;4951001;28;8838;-70
2023/05/06 10:20:54;;;;;;;;;8.50;8.50;;;;;19.27;58.02;101636.13;4959809;28;8829;-69
2023/05/06 10:23:42;;;;;;;;;6.50;3.50;;;;;19.25;56.51;101641.00;4948302;28;8852;-70
2023/05/06 10:26:10;;;;;;;;;2.75;2.75;;;;;19.33;56.23;101634.38;4955067;28;8910;-70
2023/05/06 10:28:39;;;;;;;;;3.50;3.50;;;;;19.40;56.27;101644.09;4955459;28;8928;-70
2023/05/06 10:31:14;;;;;;;;;7.75;7.00;;;;;19.45;56.06;101636.06;4954849;28;8847;-70
2023/05/06 10:33:44;;;;;;;;;4.00;3.00;;;;;19.53;56.47;101640.38;4961419;28;8828;-70
2023/05/06 10:36:19;;;;;;;;;5.25;2.75;;;;;19.57;56.50;101632.50;4954955;28;8831;-70
2023/05/06 10:38:53;;;;;;;;;5.00;5.00;;;;;19.65;56.83;101645.88;4955698;28;8819;-70
2023/05/06 10:41:21;;;;;;;;;10.00;7.25;;;;;19.64;56.31;101631.38;4955635;28;8839;-70
2023/05/06 10:43:55;;;;;;;;;9.25;8.75;;;;;19.62;56.26;101630.78;4954459;28;8851;-70
2023/05/06 10:46:24;;;;;;;;;8.50;8.50;;;;;19.62;55.99;101633.50;4958804;28;8821;-70
2023/05/06 10:49:03;;;;;;;;;5.50;4.50;;;;;19.64;55.86;101634.09;4965460;28;8853;-70
2023/05/06 10:51:31;;;;;;;;;3.50;2.50;;;;;19.67;55.85;101628.16;4936441;28;8859;-70
2023/05/06 10:54:04;;;;;;;;;6.75;4.25;;;;;19.76;55.72;101637.69;4953500;28;8855;-68
2023/05/06 10:56:33;;;;;;;;;4.00;4.00;;;;;19.61;54.98;101633.72;4954012;28;8823;-70
2023/05/06 10:59:08;;;;;;;;;3.50;3.50;;;;;19.52;54.93;101630.47;4955195;28;8842;-70
2023/05/06 11:01:35;;;;;;;;;4.25;3.75;;;;;19.43;55.48;101629.16;4961518;28;8876;-70
2023/05/06 11:04:14;;;;;;;;;7.50;6.75;;;;;19.35;56.06;101629.50;4960759;28;9746;-69
2023/05/06 11:06:45;;;;;;;;;5.00;4.25;;;;;19.36;56.61;101626.53;4965894;28;9578;-70
2023/05/06 11:09:26;;;;;;;;;5.25;5.25;;;;;19.40;56.07;101619.53;4953361;28;8827;-70
2023/05/06 11:12:01;;;;;;;;;3.50;3.00;;;;;19.37;56.52;101621.91;4953547;28;8827;-70
2023/05/06 11:14:37;;;;;;;;;8.25;7.00;;;;;19.36;56.57;101620.25;4951707;28;8838;-70
2023/05/06 11:17:29;;;;;;;;;6.25;6.00;;;;;19.48;56.69;101618.38;4952537;28;8835;-70
2023/05/06 11:20:17;;;;;;;;;9.25;8.00;;;;;19.57;56.40;101619.72;4952901;28;8957;-70
2023/05/06 11:22:43;;;;;;;;;7.75;7.50;;;;;19.60;56.30;101616.47;4936639;28;8848;-70